Time;durP1;ratioP1;P1;durP2;ratioP2;P2;SDS_P1;SDS_P2;PMS_P1;PMS_P2;Temp;Humidity;BMP_temperature;BMP_pressure;BME280_temperature;BME280_humidity;BME280_pressure;Samples;Min_cycle;Max_cycle;Signal;HPM_P1;HPM_P2
2022/07/08 00:01:58;;;;;;;6.30;1.73;;;;;;;;;;5013868;28;20045;-70
2022/07/08 00:04:25;;;;;;;5.07;1.80;;;;;;;;;;5007233;28;20095;-70
2022/07/08 00:06:51;;;;;;;6.60;1.73;;;;;;;;;;5012746;28;20047;-70
2022/07/08 00:09:17;;;;;;;7.20;1.83;;;;;;;;;;5039884;28;20033;-70
2022/07/08 00:11:44;;;;;;;6.20;2.30;;;;;;;;;;5009908;28;20042;-69
2022/07/08 00:14:10;;;;;;;5.20;1.88;;;;;;;;;;5011189;28;20478;-69
2022/07/08 00:16:40;;;;;;;9.77;2.13;;;;;;;;;;5007917;28;20081;-69
2022/07/08 00:19:07;;;;;;;7.93;1.98;;;;;;;;;;5015637;28;20116;-69
2022/07/08 00:21:34;;;;;;;8.27;1.67;;;;;;;;;;5020080;28;20502;-70
2022/07/08 00:24:00;;;;;;;7.88;1.95;;;;;;;;;;5023168;28;20400;-70
2022/07/08 00:26:26;;;;;;;7.22;2.00;;;;;;;;;;5034992;28;20055;-69
2022/07/08 00:28:52;;;;;;;9.60;1.85;;;;;;;;;;5014449;28;20056;-70
2022/07/08 00:31:18;;;;;;;8.05;1.98;;;;;;;;;;5035554;28;20041;-69
2022/07/08 00:33:44;;;;;;;8.48;1.83;;;;;;;;;;5020460;28;20045;-69
2022/07/08 00:36:10;;;;;;;12.70;2.47;;;;;;;;;;5035481;28;20064;-69
2022/07/08 00:38:36;;;;;;;7.00;1.60;;;;;;;;;;4985397;28;20037;-70
2022/07/08 00:41:03;;;;;;;8.95;2.20;;;;;;;;;;5017153;28;20041;-70
2022/07/08 00:43:37;;;;;;;7.78;2.00;;;;;;;;;;5006854;28;20391;-69
2022/07/08 00:46:03;;;;;;;5.85;1.50;;;;;;;;;;5019440;28;20450;-70
2022/07/08 00:48:29;;;;;;;7.25;1.60;;;;;;;;;;5019932;28;20072;-69
2022/07/08 00:50:58;;;;;;;6.93;1.88;;;;;;;;;;5034213;28;20106;-69
2022/07/08 00:53:24;;;;;;;8.70;1.70;;;;;;;;;;5031230;28;20037;-69
2022/07/08 00:55:50;;;;;;;7.45;1.67;;;;;;;;;;5016050;28;20394;-69
2022/07/08 00:58:16;;;;;;;5.13;1.60;;;;;;;;;;4997963;28;20084;-69
2022/07/08 01:00:43;;;;;;;8.55;2.00;;;;;;;;;;5008215;28;20041;-70
2022/07/08 01:03:09;;;;;;;7.30;1.60;;;;;;;;;;4997975;28;20073;-70
2022/07/08 01:05:35;;;;;;;7.50;1.83;;;;;;;;;;5030201;28;20065;-69
2022/07/08 01:08:01;;;;;;;8.35;1.73;;;;;;;;;;4984502;28;20041;-69
2022/07/08 01:10:29;;;;;;;5.63;1.70;;;;;;;;;;5001023;28;20124;-69
2022/07/08 01:12:56;;;;;;;7.45;1.80;;;;;;;;;;5020917;28;20048;-70
2022/07/08 01:15:23;;;;;;;5.80;2.00;;;;;;;;;;5019351;28;20045;-69
2022/07/08 01:17:49;;;;;;;8.20;1.83;;;;;;;;;;5016886;28;20042;-69
2022/07/08 01:20:15;;;;;;;10.45;1.95;;;;;;;;;;5016802;28;20041;-69
2022/07/08 01:22:41;;;;;;;11.90;1.98;;;;;;;;;;5017746;28;20073;-69
2022/07/08 01:25:09;;;;;;;8.68;1.80;;;;;;;;;;5017392;28;20037;-69
2022/07/08 01:27:35;;;;;;;6.47;1.90;;;;;;;;;;5001574;28;20116;-69
2022/07/08 01:30:01;;;;;;;9.10;2.00;;;;;;;;;;5032127;28;20050;-69
2022/07/08 01:32:32;;;;;;;7.97;1.80;;;;;;;;;;5029090;28;20052;-75
2022/07/08 01:34:58;;;;;;;9.07;1.80;;;;;;;;;;5026928;28;20441;-75
2022/07/08 01:37:24;;;;;;;7.07;1.80;;;;;;;;;;5014807;28;20103;-74
2022/07/08 01:39:51;;;;;;;6.63;1.77;;;;;;;;;;5025658;28;20045;-75
2022/07/08 01:42:17;;;;;;;6.05;1.70;;;;;;;;;;5021841;28;20033;-75
2022/07/08 01:44:43;;;;;;;7.50;1.70;;;;;;;;;;5032206;28;20041;-75
2022/07/08 01:47:09;;;;;;;9.00;1.67;;;;;;;;;;4993910;28;20049;-74
2022/07/08 01:49:35;;;;;;;9.40;1.90;;;;;;;;;;5033540;28;20498;-75
2022/07/08 01:52:01;;;;;;;6.53;1.58;;;;;;;;;;5022079;28;20124;-75
2022/07/08 01:54:27;;;;;;;7.05;2.03;;;;;;;;;;5033505;28;20052;-75
2022/07/08 01:57:13;;;;;;;8.00;1.70;;;;;;;;;;5017965;28;20055;-75
2022/07/08 01:59:40;;;;;;;9.32;1.90;;;;;;;;;;4986191;28;20055;-75
2022/07/08 02:02:06;;;;;;;10.25;2.15;;;;;;;;;;4990096;28;20124;-75
2022/07/08 02:04:32;;;;;;;6.93;1.63;;;;;;;;;;5021037;28;20525;-75
2022/07/08 02:06:58;;;;;;;5.35;1.75;;;;;;;;;;5028841;28;20072;-75
2022/07/08 02:09:24;;;;;;;7.15;2.03;;;;;;;;;;5042255;28;20033;-75
2022/07/08 02:14:35;;;;;;;10.68;1.90;;;;;;;;;;5032576;28;20053;-75
2022/07/08 02:17:01;;;;;;;10.00;2.00;;;;;;;;;;5040313;28;20136;-75
2022/07/08 02:19:27;;;;;;;7.75;2.05;;;;;;;;;;4999631;28;20128;-75
2022/07/08 02:21:53;;;;;;;8.38;1.83;;;;;;;;;;4984817;28;20168;-69
2022/07/08 02:24:19;;;;;;;7.03;1.80;;;;;;;;;;5018610;28;20417;-69
2022/07/08 02:26:45;;;;;;;7.43;1.98;;;;;;;;;;5016825;28;20033;-69
2022/07/08 02:29:11;;;;;;;7.53;1.92;;;;;;;;;;5015379;28;20064;-69
2022/07/08 02:31:38;;;;;;;8.57;2.20;;;;;;;;;;5016053;28;20045;-69
2022/07/08 02:34:04;;;;;;;8.15;1.92;;;;;;;;;;5021791;28;20041;-68
2022/07/08 02:36:30;;;;;;;6.97;2.13;;;;;;;;;;5016330;28;20038;-69
2022/07/08 02:38:56;;;;;;;5.95;2.00;;;;;;;;;;5028233;28;20478;-69
2022/07/08 02:41:22;;;;;;;6.25;1.80;;;;;;;;;;5004213;28;20041;-69
2022/07/08 02:43:48;;;;;;;5.85;1.90;;;;;;;;;;5018600;28;20049;-69
2022/07/08 02:46:14;;;;;;;7.22;2.17;;;;;;;;;;4999073;28;20051;-69
2022/07/08 02:48:40;;;;;;;8.00;1.88;;;;;;;;;;5027541;28;20116;-69
2022/07/08 02:51:07;;;;;;;6.20;1.83;;;;;;;;;;5023698;28;20041;-69
2022/07/08 02:53:33;;;;;;;7.72;1.85;;;;;;;;;;5006110;28;20054;-69
2022/07/08 02:55:59;;;;;;;6.60;2.00;;;;;;;;;;5028659;28;20049;-69
2022/07/08 02:58:25;;;;;;;11.75;2.25;;;;;;;;;;5013604;28;20037;-68
2022/07/08 03:00:51;;;;;;;8.48;2.47;;;;;;;;;;5020116;28;20033;-69
2022/07/08 03:03:17;;;;;;;8.65;2.40;;;;;;;;;;5038882;28;20950;-69
2022/07/08 03:05:43;;;;;;;10.35;2.40;;;;;;;;;;4998724;28;20383;-69
2022/07/08 03:08:09;;;;;;;8.98;2.47;;;;;;;;;;5016192;28;20438;-69
2022/07/08 03:10:35;;;;;;;7.93;2.15;;;;;;;;;;5008734;28;20041;-69
2022/07/08 03:13:01;;;;;;;8.60;2.55;;;;;;;;;;5024454;28;20037;-74
2022/07/08 03:15:28;;;;;;;7.70;2.70;;;;;;;;;;5006459;28;20046;-75
2022/07/08 03:17:54;;;;;;;7.82;2.38;;;;;;;;;;5010764;28;20099;-75
2022/07/08 03:20:20;;;;;;;8.18;2.15;;;;;;;;;;5010561;28;20172;-74
2022/07/08 03:22:46;;;;;;;11.50;2.50;;;;;;;;;;5015358;28;20120;-75
2022/07/08 03:25:12;;;;;;;9.23;2.60;;;;;;;;;;5035626;28;20490;-75
2022/07/08 03:27:38;;;;;;;6.65;2.90;;;;;;;;;;5004898;28;20045;-75
2022/07/08 03:30:05;;;;;;;15.32;2.65;;;;;;;;;;5015432;28;20052;-69
2022/07/08 03:32:31;;;;;;;6.80;2.53;;;;;;;;;;5017802;28;20512;-68
2022/07/08 03:34:57;;;;;;;8.68;2.72;;;;;;;;;;5018621;28;20048;-68
2022/07/08 03:37:24;;;;;;;7.78;2.67;;;;;;;;;;5029863;28;20076;-69
2022/07/08 03:39:50;;;;;;;9.90;2.42;;;;;;;;;;5014342;28;20096;-69
2022/07/08 03:42:17;;;;;;;8.93;2.55;;;;;;;;;;5015099;28;20443;-69
2022/07/08 03:44:43;;;;;;;4.57;2.45;;;;;;;;;;5022280;28;20073;-69
2022/07/08 03:47:09;;;;;;;9.75;2.50;;;;;;;;;;5009204;28;20034;-69
2022/07/08 03:49:35;;;;;;;9.65;2.60;;;;;;;;;;5013739;28;20045;-69
2022/07/08 03:52:01;;;;;;;5.85;2.53;;;;;;;;;;5031589;28;20045;-69
2022/07/08 03:54:28;;;;;;;7.63;2.50;;;;;;;;;;5031371;28;20037;-69
2022/07/08 03:56:54;;;;;;;6.70;2.55;;;;;;;;;;5025824;28;20040;-69
2022/07/08 03:59:20;;;;;;;3.35;2.00;;;;;;;;;;5022160;28;20472;-69
2022/07/08 04:01:46;;;;;;;4.00;1.95;;;;;;;;;;5018362;28;20041;-70
2022/07/08 04:04:12;;;;;;;4.50;2.10;;;;;;;;;;5017479;28;20038;-69
2022/07/08 04:06:38;;;;;;;6.82;2.47;;;;;;;;;;5030134;28;20047;-69
2022/07/08 04:09:05;;;;;;;8.82;2.40;;;;;;;;;;5050194;28;20046;-70
2022/07/08 04:11:31;;;;;;;5.95;2.28;;;;;;;;;;5016196;28;20553;-69
2022/07/08 04:13:57;;;;;;;8.13;2.30;;;;;;;;;;5020425;28;20111;-70
2022/07/08 04:16:23;;;;;;;7.43;2.50;;;;;;;;;;5045220;28;20067;-70
2022/07/08 04:18:49;;;;;;;8.52;2.45;;;;;;;;;;5008048;28;20037;-69
2022/07/08 04:21:15;;;;;;;7.45;2.13;;;;;;;;;;5043278;28;20037;-70
2022/07/08 04:23:41;;;;;;;11.20;2.30;;;;;;;;;;5025034;28;20049;-69
2022/07/08 04:26:08;;;;;;;8.77;2.30;;;;;;;;;;5002250;28;20482;-70
2022/07/08 04:28:34;;;;;;;7.30;2.30;;;;;;;;;;5022186;28;20043;-70
2022/07/08 04:31:00;;;;;;;7.30;2.20;;;;;;;;;;5037729;28;20041;-71
2022/07/08 04:33:27;;;;;;;6.05;2.00;;;;;;;;;;5020871;28;20042;-70
2022/07/08 04:35:53;;;;;;;5.55;2.20;;;;;;;;;;5020948;28;20049;-70
2022/07/08 04:38:19;;;;;;;8.50;1.90;;;;;;;;;;5008884;28;20042;-70
2022/07/08 04:40:45;;;;;;;8.07;2.10;;;;;;;;;;5039440;28;20096;-70
2022/07/08 04:43:12;;;;;;;7.05;2.10;;;;;;;;;;5030401;28;20045;-70
2022/07/08 04:45:39;;;;;;;12.10;2.70;;;;;;;;;;5027991;28;20045;-70
2022/07/08 04:48:05;;;;;;;9.15;2.22;;;;;;;;;;5017534;28;20073;-70
2022/07/08 04:50:31;;;;;;;7.53;2.10;;;;;;;;;;5034050;28;20048;-70
2022/07/08 04:52:58;;;;;;;9.32;2.28;;;;;;;;;;5017724;28;20038;-70
2022/07/08 04:55:29;;;;;;;6.25;2.00;;;;;;;;;;5024181;28;20041;-70
2022/07/08 04:57:56;;;;;;;9.13;2.33;;;;;;;;;;5039909;28;20047;-70
2022/07/08 05:00:22;;;;;;;10.82;2.70;;;;;;;;;;5017086;28;20037;-70
2022/07/08 05:02:49;;;;;;;9.15;2.40;;;;;;;;;;5035379;28;20037;-70
2022/07/08 05:05:15;;;;;;;7.35;2.00;;;;;;;;;;5033299;28;20029;-70
2022/07/08 05:07:41;;;;;;;7.47;2.40;;;;;;;;;;5028606;28;20372;-70
2022/07/08 05:10:07;;;;;;;8.73;2.10;;;;;;;;;;5017105;28;20073;-70
2022/07/08 05:12:33;;;;;;;11.63;2.20;;;;;;;;;;4996060;28;20041;-71
2022/07/08 05:14:59;;;;;;;8.63;2.60;;;;;;;;;;5028088;28;20171;-70
2022/07/08 05:17:25;;;;;;;7.18;2.42;;;;;;;;;;5005043;28;20033;-70
2022/07/08 05:19:51;;;;;;;6.93;2.00;;;;;;;;;;5022916;28;20044;-70
2022/07/08 05:22:17;;;;;;;8.32;2.20;;;;;;;;;;5038908;28;20044;-69
2022/07/08 05:24:44;;;;;;;8.20;2.38;;;;;;;;;;5012099;28;20540;-70
2022/07/08 05:27:10;;;;;;;12.10;2.92;;;;;;;;;;5035111;28;20064;-70
2022/07/08 05:29:36;;;;;;;10.75;2.38;;;;;;;;;;5024501;28;20057;-70
2022/07/08 05:32:03;;;;;;;8.98;2.80;;;;;;;;;;5034579;28;20513;-70
2022/07/08 05:34:29;;;;;;;8.10;2.35;;;;;;;;;;5009485;28;20045;-70
2022/07/08 05:36:55;;;;;;;8.80;2.20;;;;;;;;;;5000627;28;20049;-71
2022/07/08 05:39:21;;;;;;;6.63;2.03;;;;;;;;;;5011413;28;20034;-70
2022/07/08 05:41:47;;;;;;;6.55;1.98;;;;;;;;;;5016712;28;20116;-70
2022/07/08 05:44:13;;;;;;;7.18;1.70;;;;;;;;;;5033970;28;20042;-70
2022/07/08 05:46:39;;;;;;;7.00;2.22;;;;;;;;;;5007823;28;20052;-70
2022/07/08 05:49:05;;;;;;;8.13;1.80;;;;;;;;;;5008008;28;20037;-70
2022/07/08 05:51:31;;;;;;;7.18;1.60;;;;;;;;;;5015921;28;20037;-71
2022/07/08 05:53:57;;;;;;;8.25;1.60;;;;;;;;;;4995898;28;20041;-71
2022/07/08 05:56:23;;;;;;;6.78;1.50;;;;;;;;;;5011506;28;20049;-71
2022/07/08 05:58:49;;;;;;;5.65;1.45;;;;;;;;;;5017168;28;20041;-71
2022/07/08 06:01:16;;;;;;;7.28;1.58;;;;;;;;;;4999952;28;20080;-71
2022/07/08 06:03:42;;;;;;;7.85;1.75;;;;;;;;;;5015714;28;20049;-71
2022/07/08 06:06:08;;;;;;;8.88;1.60;;;;;;;;;;5020212;28;20038;-72
2022/07/08 06:08:34;;;;;;;5.93;1.73;;;;;;;;;;5017819;28;20048;-77
2022/07/08 06:11:01;;;;;;;10.10;1.63;;;;;;;;;;5021017;28;20052;-76
2022/07/08 06:13:27;;;;;;;9.68;1.85;;;;;;;;;;4995859;28;20450;-76
2022/07/08 06:15:54;;;;;;;7.45;1.45;;;;;;;;;;5016097;28;20049;-75
2022/07/08 06:18:20;;;;;;;7.50;1.60;;;;;;;;;;5016033;28;20108;-76
2022/07/08 06:20:46;;;;;;;8.57;1.58;;;;;;;;;;5017099;28;20049;-77
2022/07/08 06:23:12;;;;;;;12.68;2.50;;;;;;;;;;4999709;28;20041;-75
2022/07/08 06:25:38;;;;;;;8.68;2.00;;;;;;;;;;5028125;28;20132;-77
2022/07/08 06:28:05;;;;;;;7.07;1.30;;;;;;;;;;5033186;28;20549;-72
2022/07/08 06:30:31;;;;;;;11.32;2.03;;;;;;;;;;4978618;28;20050;-71
2022/07/08 06:32:59;;;;;;;9.75;1.88;;;;;;;;;;5004329;28;20133;-72
2022/07/08 06:35:26;;;;;;;7.35;1.50;;;;;;;;;;4976046;28;20487;-72
2022/07/08 06:37:53;;;;;;;11.63;1.67;;;;;;;;;;4995541;28;20229;-72
2022/07/08 06:40:22;;;;;;;8.50;2.15;;;;;;;;;;4978492;28;20053;-72
2022/07/08 06:42:48;;;;;;;12.23;1.60;;;;;;;;;;4974552;28;20038;-71
2022/07/08 06:45:15;;;;;;;9.82;1.80;;;;;;;;;;4995055;28;20045;-72
2022/07/08 06:47:41;;;;;;;10.18;2.03;;;;;;;;;;5000946;28;20041;-72
2022/07/08 06:50:08;;;;;;;11.30;2.25;;;;;;;;;;4979149;28;20049;-72
2022/07/08 06:52:35;;;;;;;7.72;1.65;;;;;;;;;;4999146;28;20037;-72
2022/07/08 06:55:01;;;;;;;5.68;1.60;;;;;;;;;;4997869;28;20545;-71
2022/07/08 06:57:27;;;;;;;9.55;1.80;;;;;;;;;;5012641;28;20561;-71
2022/07/08 06:59:54;;;;;;;9.20;1.52;;;;;;;;;;5012469;28;20044;-72
2022/07/08 07:02:20;;;;;;;8.90;1.85;;;;;;;;;;4979647;28;20046;-72
2022/07/08 07:04:46;;;;;;;9.25;1.60;;;;;;;;;;4994986;28;20050;-71
2022/07/08 07:07:12;;;;;;;9.82;1.98;;;;;;;;;;4995363;28;20094;-72
2022/07/08 07:09:38;;;;;;;11.88;1.80;;;;;;;;;;4994809;28;20129;-72
2022/07/08 07:12:06;;;;;;;9.07;1.75;;;;;;;;;;4994677;28;20137;-69
2022/07/08 07:14:32;;;;;;;8.27;1.65;;;;;;;;;;4997234;28;20487;-70
2022/07/08 07:16:59;;;;;;;5.82;1.60;;;;;;;;;;4994920;28;20049;-69
2022/07/08 07:19:25;;;;;;;9.57;1.90;;;;;;;;;;5023658;28;20049;-69
2022/07/08 07:21:51;;;;;;;9.20;2.20;;;;;;;;;;5012244;28;20048;-70
2022/07/08 07:24:17;;;;;;;6.00;1.52;;;;;;;;;;4994587;28;20038;-70
2022/07/08 07:26:43;;;;;;;9.43;1.70;;;;;;;;;;4993401;28;20078;-69
2022/07/08 07:29:09;;;;;;;6.40;1.50;;;;;;;;;;5001053;28;20050;-70
2022/07/08 07:31:36;;;;;;;8.15;1.83;;;;;;;;;;4998116;28;20090;-70
2022/07/08 07:34:02;;;;;;;7.30;1.85;;;;;;;;;;4997916;28;20048;-70
2022/07/08 07:36:29;;;;;;;9.43;1.85;;;;;;;;;;4997374;28;20033;-70
2022/07/08 07:38:55;;;;;;;9.20;1.77;;;;;;;;;;4998054;28;20446;-70
2022/07/08 07:41:21;;;;;;;7.70;1.60;;;;;;;;;;5014264;28;20564;-70
2022/07/08 07:43:48;;;;;;;6.63;1.77;;;;;;;;;;4997627;28;20068;-70
2022/07/08 07:46:14;;;;;;;9.60;1.90;;;;;;;;;;5014375;28;20538;-70
2022/07/08 07:48:40;;;;;;;7.45;1.52;;;;;;;;;;4997593;28;20037;-71
2022/07/08 07:51:06;;;;;;;11.77;1.80;;;;;;;;;;5014650;28;20048;-69
2022/07/08 07:53:32;;;;;;;6.35;1.80;;;;;;;;;;5014629;28;20560;-70
2022/07/08 07:55:58;;;;;;;8.80;2.03;;;;;;;;;;4981633;28;20500;-74
2022/07/08 07:58:25;;;;;;;7.00;1.42;;;;;;;;;;5031886;28;20033;-74
2022/07/08 08:00:52;;;;;;;10.25;1.50;;;;;;;;;;5011833;28;20050;-75
2022/07/08 08:03:18;;;;;;;5.30;1.60;;;;;;;;;;5011464;28;20055;-74
2022/07/08 08:05:44;;;;;;;8.35;1.48;;;;;;;;;;5030650;28;20421;-72
2022/07/08 08:08:11;;;;;;;7.30;1.50;;;;;;;;;;5005197;28;20049;-73
2022/07/08 08:10:38;;;;;;;8.80;1.50;;;;;;;;;;5012764;28;20069;-72
2022/07/08 08:13:04;;;;;;;5.90;1.42;;;;;;;;;;5028497;28;20046;-73
2022/07/08 08:15:31;;;;;;;8.00;1.50;;;;;;;;;;4990637;28;20513;-73
2022/07/08 08:17:57;;;;;;;6.85;1.35;;;;;;;;;;5027751;28;20069;-72
2022/07/08 08:20:31;;;;;;;4.93;1.20;;;;;;;;;;5026852;28;20495;-75
2022/07/08 08:22:58;;;;;;;5.95;1.50;;;;;;;;;;5012609;28;20081;-75
2022/07/08 08:25:25;;;;;;;8.68;1.80;;;;;;;;;;5004650;28;20037;-76
2022/07/08 08:27:51;;;;;;;7.20;2.00;;;;;;;;;;5013902;28;20037;-75
2022/07/08 08:30:17;;;;;;;7.35;1.67;;;;;;;;;;5003091;28;20054;-74
2022/07/08 08:32:44;;;;;;;7.20;1.40;;;;;;;;;;4997669;28;20513;-75
2022/07/08 08:35:10;;;;;;;6.57;1.50;;;;;;;;;;5020696;28;20475;-73
2022/07/08 08:37:36;;;;;;;5.07;1.60;;;;;;;;;;4994514;28;20069;-73
2022/07/08 08:40:07;;;;;;;7.90;1.60;;;;;;;;;;4994440;28;20042;-73
2022/07/08 08:42:33;;;;;;;6.20;1.73;;;;;;;;;;5003634;28;20050;-72
2022/07/08 08:45:02;;;;;;;7.80;2.05;;;;;;;;;;4993116;28;20128;-73
2022/07/08 08:47:29;;;;;;;8.40;1.80;;;;;;;;;;5004324;28;20092;-72
2022/07/08 08:50:53;;;;;;;7.15;1.80;;;;;;;;;;5019020;28;20030;-73
2022/07/08 08:52:52;;;;;;;4.53;1.40;;;;;;;;;;5003511;28;20041;-73
2022/07/08 08:55:24;;;;;;;3.83;1.30;;;;;;;;;;4999949;28;20100;-73
2022/07/08 08:57:51;;;;;;;5.00;1.60;;;;;;;;;;4997525;28;20038;-73
2022/07/08 09:00:17;;;;;;;7.85;1.40;;;;;;;;;;5003621;28;20092;-73
2022/07/08 09:02:43;;;;;;;7.30;1.50;;;;;;;;;;5007117;28;20458;-73
2022/07/08 09:05:09;;;;;;;6.57;1.50;;;;;;;;;;5024597;28;20041;-73
2022/07/08 09:07:35;;;;;;;7.45;1.70;;;;;;;;;;4997581;28;20048;-74
2022/07/08 09:10:01;;;;;;;5.05;1.40;;;;;;;;;;4997474;28;20534;-72
2022/07/08 09:12:27;;;;;;;6.65;1.52;;;;;;;;;;5003356;28;20034;-73
2022/07/08 09:14:54;;;;;;;5.78;1.40;;;;;;;;;;4995850;28;20070;-73
2022/07/08 09:17:21;;;;;;;6.63;1.30;;;;;;;;;;4998128;28;20132;-74
2022/07/08 09:19:49;;;;;;;4.82;1.65;;;;;;;;;;5018247;28;20069;-73
2022/07/08 09:22:15;;;;;;;5.30;1.15;;;;;;;;;;4995898;28;20037;-75
2022/07/08 09:24:41;;;;;;;5.57;1.35;;;;;;;;;;4995419;28;20048;-75
2022/07/08 09:27:07;;;;;;;6.32;1.50;;;;;;;;;;4995602;28;20037;-75
2022/07/08 09:29:34;;;;;;;5.53;1.40;;;;;;;;;;4995645;28;20112;-75
2022/07/08 09:32:11;;;;;;;7.32;1.58;;;;;;;;;;4980885;28;20046;-75
2022/07/08 09:34:38;;;;;;;9.38;1.92;;;;;;;;;;4997009;28;20403;-74
2022/07/08 09:37:15;;;;;;;8.48;1.83;;;;;;;;;;4980768;28;20462;-73
2022/07/08 09:39:41;;;;;;;6.00;1.50;;;;;;;;;;4980455;28;20046;-76
2022/07/08 09:42:08;;;;;;;7.32;1.90;;;;;;;;;;4992666;28;20121;-76
2022/07/08 09:44:34;;;;;;;7.57;1.65;;;;;;;;;;4993995;28;20220;-75
2022/07/08 09:47:01;;;;;;;10.00;1.85;;;;;;;;;;5001742;28;20033;-75
2022/07/08 09:49:30;;;;;;;5.78;1.60;;;;;;;;;;4995626;28;20041;-74
2022/07/08 09:51:57;;;;;;;7.53;1.63;;;;;;;;;;4996448;28;20046;-76
2022/07/08 09:54:24;;;;;;;7.13;1.90;;;;;;;;;;4981770;28;20502;-75
2022/07/08 09:57:07;;;;;;;6.90;2.10;;;;;;;;;;4995951;28;20432;-77
2022/07/08 09:59:34;;;;;;;10.18;1.92;;;;;;;;;;4996475;28;20071;-80
2022/07/08 10:02:00;;;;;;;6.63;1.67;;;;;;;;;;4997090;28;20494;-81
2022/07/08 10:04:27;;;;;;;5.20;1.45;;;;;;;;;;4995543;28;20128;-81
2022/07/08 10:06:54;;;;;;;9.77;1.75;;;;;;;;;;4996047;28;20046;-80
2022/07/08 10:09:21;;;;;;;6.72;1.63;;;;;;;;;;4996115;28;20041;-77
2022/07/08 10:11:48;;;;;;;11.23;1.83;;;;;;;;;;5013376;28;20038;-80
2022/07/08 10:14:14;;;;;;;7.00;1.80;;;;;;;;;;4998101;28;20085;-79
2022/07/08 10:16:41;;;;;;;7.88;1.98;;;;;;;;;;4996554;28;20068;-78
2022/07/08 10:19:27;;;;;;;6.40;1.90;;;;;;;;;;4993093;28;20069;-80
2022/07/08 10:21:55;;;;;;;6.22;1.65;;;;;;;;;;4999027;28;20124;-80
2022/07/08 10:24:22;;;;;;;8.90;1.83;;;;;;;;;;4978735;28;20430;-79
2022/07/08 10:26:49;;;;;;;8.07;2.03;;;;;;;;;;4990576;28;20052;-80
2022/07/08 10:29:15;;;;;;;7.40;1.80;;;;;;;;;;4994221;28;20057;-78
2022/07/08 10:31:51;;;;;;;7.55;1.70;;;;;;;;;;5013997;28;20038;-80
2022/07/08 10:34:19;;;;;;;6.68;2.00;;;;;;;;;;5014005;28;20494;-79
2022/07/08 10:36:53;;;;;;;8.27;1.70;;;;;;;;;;4995580;28;20049;-79
2022/07/08 10:39:29;;;;;;;5.40;1.48;;;;;;;;;;4996563;28;20037;-79
2022/07/08 10:41:57;;;;;;;6.32;1.50;;;;;;;;;;5010105;28;20041;-80
2022/07/08 10:44:46;;;;;;;4.47;1.60;;;;;;;;;;4995604;28;20165;-78
2022/07/08 10:47:17;;;;;;;5.95;1.50;;;;;;;;;;4987728;28;20198;-79
2022/07/08 10:49:47;;;;;;;5.32;1.60;;;;;;;;;;4994973;28;20056;-79
2022/07/08 10:52:14;;;;;;;7.07;2.13;;;;;;;;;;5008314;28;20044;-80
2022/07/08 10:54:40;;;;;;;5.07;1.40;;;;;;;;;;5008742;28;20133;-80
2022/07/08 10:57:14;;;;;;;7.75;1.73;;;;;;;;;;5005519;28;20053;-80
2022/07/08 10:59:40;;;;;;;6.25;1.60;;;;;;;;;;5003699;28;20073;-79
2022/07/08 11:02:14;;;;;;;8.65;1.50;;;;;;;;;;5000133;28;20400;-75
2022/07/08 11:04:40;;;;;;;6.15;1.58;;;;;;;;;;5010756;28;20128;-79
2022/07/08 11:07:28;;;;;;;4.13;1.52;;;;;;;;;;4996988;28;20038;-79
2022/07/08 11:10:04;;;;;;;5.03;1.67;;;;;;;;;;5003664;28;20067;-80
2022/07/08 11:12:32;;;;;;;4.97;1.38;;;;;;;;;;5015555;28;20069;-78
2022/07/08 11:14:59;;;;;;;4.13;1.40;;;;;;;;;;5011552;28;20062;-78
2022/07/08 11:17:25;;;;;;;5.20;1.50;;;;;;;;;;4995280;28;20478;-79
2022/07/08 11:19:52;;;;;;;11.15;1.85;;;;;;;;;;5006842;28;20052;-79
2022/07/08 11:22:18;;;;;;;4.65;1.30;;;;;;;;;;4990159;28;20049;-80
2022/07/08 11:24:45;;;;;;;3.95;1.55;;;;;;;;;;4997065;28;20050;-78
2022/07/08 11:27:11;;;;;;;4.22;1.38;;;;;;;;;;5005263;28;20049;-79
2022/07/08 11:29:38;;;;;;;5.65;1.52;;;;;;;;;;5013172;28;20053;-76
2022/07/08 11:32:05;;;;;;;5.80;1.60;;;;;;;;;;5024324;28;20044;-77
2022/07/08 11:34:32;;;;;;;6.13;1.35;;;;;;;;;;5024483;28;20386;-78
2022/07/08 11:36:58;;;;;;;6.90;1.40;;;;;;;;;;4998269;28;20076;-80
2022/07/08 11:39:25;;;;;;;7.32;1.80;;;;;;;;;;5013448;28;20037;-80
2022/07/08 11:41:51;;;;;;;4.53;1.42;;;;;;;;;;4991734;28;20068;-79
2022/07/08 11:44:21;;;;;;;4.30;1.52;;;;;;;;;;4998163;28;20406;-79
2022/07/08 11:46:48;;;;;;;6.40;1.60;;;;;;;;;;4999865;28;20059;-79
2022/07/08 11:49:14;;;;;;;6.15;1.95;;;;;;;;;;5004889;28;20041;-79
2022/07/08 11:51:50;;;;;;;7.00;1.75;;;;;;;;;;5019174;28;20049;-79
2022/07/08 11:54:19;;;;;;;5.18;1.75;;;;;;;;;;5013274;28;20041;-79
2022/07/08 11:56:45;;;;;;;4.50;1.60;;;;;;;;;;4997870;28;20075;-79
2022/07/08 11:59:11;;;;;;;5.40;1.60;;;;;;;;;;4997851;28;20487;-79
2022/07/08 12:01:38;;;;;;;6.32;1.70;;;;;;;;;;5000307;28;20049;-79
2022/07/08 12:04:07;;;;;;;6.85;1.63;;;;;;;;;;5014482;28;20052;-79
2022/07/08 12:06:34;;;;;;;3.90;1.67;;;;;;;;;;5033713;28;20037;-80
2022/07/08 12:09:09;;;;;;;5.80;1.77;;;;;;;;;;5032540;28;20041;-79
2022/07/08 12:11:45;;;;;;;7.55;2.08;;;;;;;;;;4997901;28;20125;-80
2022/07/08 12:14:12;;;;;;;6.90;2.20;;;;;;;;;;5032144;28;20555;-80
2022/07/08 12:16:46;;;;;;;7.30;2.15;;;;;;;;;;5014475;28;20489;-79
2022/07/08 12:19:44;;;;;;;6.82;2.20;;;;;;;;;;5015265;28;20083;-79
2022/07/08 12:22:13;;;;;;;9.27;2.67;;;;;;;;;;4990259;28;20049;-79
2022/07/08 12:24:40;;;;;;;10.82;3.00;;;;;;;;;;5023545;28;20041;-71
2022/07/08 12:27:11;;;;;;;7.15;2.88;;;;;;;;;;5018150;28;20068;-73
2022/07/08 12:29:38;;;;;;;10.75;3.10;;;;;;;;;;5001259;28;20048;-73
2022/07/08 12:32:08;;;;;;;10.70;3.40;;;;;;;;;;5018831;28;20052;-72
2022/07/08 12:34:34;;;;;;;10.73;3.50;;;;;;;;;;5027304;28;20521;-69
2022/07/08 12:37:17;;;;;;;11.35;3.60;;;;;;;;;;5035244;28;20390;-72
2022/07/08 12:39:43;;;;;;;10.77;3.83;;;;;;;;;;5015829;28;20049;-71
2022/07/08 12:42:09;;;;;;;11.38;3.60;;;;;;;;;;5014279;28;20056;-72
2022/07/08 12:44:35;;;;;;;8.82;3.45;;;;;;;;;;5001145;28;20073;-73
2022/07/08 12:47:03;;;;;;;7.13;3.25;;;;;;;;;;5001719;28;20049;-73
2022/07/08 12:49:30;;;;;;;11.05;3.47;;;;;;;;;;5018060;28;20048;-73
2022/07/08 12:51:57;;;;;;;9.80;3.95;;;;;;;;;;5001408;28;20494;-74
2022/07/08 12:54:24;;;;;;;10.43;3.60;;;;;;;;;;5017062;28;20098;-73
2022/07/08 12:56:50;;;;;;;9.95;3.70;;;;;;;;;;5017413;28;20454;-73
2022/07/08 12:59:17;;;;;;;10.70;3.70;;;;;;;;;;5018509;28;20044;-72
2022/07/08 13:01:43;;;;;;;11.38;3.72;;;;;;;;;;4997202;28;20042;-73
2022/07/08 13:04:09;;;;;;;8.30;3.35;;;;;;;;;;5013183;28;20129;-73
2022/07/08 13:06:35;;;;;;;10.50;3.15;;;;;;;;;;5000371;28;20164;-72
2022/07/08 13:09:01;;;;;;;7.40;3.35;;;;;;;;;;5034864;28;20045;-73
2022/07/08 13:11:28;;;;;;;13.13;3.55;;;;;;;;;;5016996;28;20099;-74
2022/07/08 13:13:54;;;;;;;7.75;3.17;;;;;;;;;;5017157;28;20478;-73
2022/07/08 13:16:20;;;;;;;8.80;3.22;;;;;;;;;;4999986;28;20040;-73
2022/07/08 13:18:46;;;;;;;9.32;3.60;;;;;;;;;;5018425;28;20075;-73
2022/07/08 13:21:12;;;;;;;8.68;3.28;;;;;;;;;;5027754;28;20040;-72
2022/07/08 13:23:38;;;;;;;6.68;3.20;;;;;;;;;;5016640;28;20641;-70
2022/07/08 13:26:04;;;;;;;10.27;3.58;;;;;;;;;;4999868;28;20042;-69
2022/07/08 13:28:33;;;;;;;12.43;3.60;;;;;;;;;;5016178;28;20030;-70
2022/07/08 13:31:00;;;;;;;10.25;3.30;;;;;;;;;;4998410;28;20100;-69
2022/07/08 13:33:26;;;;;;;14.30;3.35;;;;;;;;;;5001372;28;20133;-69
2022/07/08 13:35:53;;;;;;;10.82;3.03;;;;;;;;;;5001726;28;20510;-69
2022/07/08 13:38:22;;;;;;;11.13;3.17;;;;;;;;;;4975368;28;20041;-68
2022/07/08 13:40:49;;;;;;;14.40;3.63;;;;;;;;;;4965169;28;20046;-72
2022/07/08 13:43:16;;;;;;;8.82;2.70;;;;;;;;;;4996660;28;20054;-69
2022/07/08 13:45:42;;;;;;;11.27;3.15;;;;;;;;;;5014478;28;20074;-71
2022/07/08 13:48:08;;;;;;;11.35;2.78;;;;;;;;;;4989921;28;20038;-70
2022/07/08 13:50:34;;;;;;;10.57;2.88;;;;;;;;;;4994606;28;20080;-71
2022/07/08 13:53:00;;;;;;;10.45;3.45;;;;;;;;;;4997095;28;20038;-71
2022/07/08 13:55:26;;;;;;;9.00;3.30;;;;;;;;;;5017885;28;20490;-71
2022/07/08 13:57:52;;;;;;;8.25;3.17;;;;;;;;;;4995117;28;20033;-72
2022/07/08 14:00:18;;;;;;;7.95;2.97;;;;;;;;;;4996619;28;20049;-71
2022/07/08 14:02:44;;;;;;;10.05;2.85;;;;;;;;;;5006963;28;20049;-70
2022/07/08 14:05:10;;;;;;;10.43;3.28;;;;;;;;;;4998963;28;20073;-71
2022/07/08 14:07:37;;;;;;;10.20;3.17;;;;;;;;;;5012940;28;20033;-70
2022/07/08 14:10:03;;;;;;;8.25;2.63;;;;;;;;;;5004951;28;20088;-70
2022/07/08 14:12:29;;;;;;;9.80;3.67;;;;;;;;;;5012272;28;20453;-71
2022/07/08 14:14:55;;;;;;;8.38;2.88;;;;;;;;;;5009766;28;20115;-71
2022/07/08 14:17:21;;;;;;;9.38;2.90;;;;;;;;;;4999792;28;20597;-70
2022/07/08 14:19:47;;;;;;;6.50;2.30;;;;;;;;;;5002004;28;20049;-71
2022/07/08 14:22:13;;;;;;;7.15;2.55;;;;;;;;;;5008791;28;20116;-71
2022/07/08 14:24:39;;;;;;;8.43;2.40;;;;;;;;;;5005963;28;20038;-71
2022/07/08 14:27:06;;;;;;;6.13;2.20;;;;;;;;;;4976685;28;20038;-69
2022/07/08 14:29:32;;;;;;;6.72;1.67;;;;;;;;;;4991986;28;20435;-70
2022/07/08 14:31:58;;;;;;;7.47;1.70;;;;;;;;;;5001867;28;20046;-68
2022/07/08 14:34:24;;;;;;;5.97;1.77;;;;;;;;;;4991991;28;20128;-69
2022/07/08 14:36:50;;;;;;;4.22;1.50;;;;;;;;;;4964168;28;20499;-70
2022/07/08 14:39:16;;;;;;;5.43;1.92;;;;;;;;;;4993162;28;20430;-72
2022/07/08 14:41:42;;;;;;;5.72;2.35;;;;;;;;;;4997156;28;20045;-72
2022/07/08 14:44:08;;;;;;;4.65;1.98;;;;;;;;;;4997069;28;20469;-71